createdAt,value
2022-08-17T00:02:25.866Z,73.51
2022-08-17T00:04:53.147Z,73.76
2022-08-17T00:07:19.497Z,74.29
2022-08-17T00:09:46.045Z,74.41
2022-08-17T00:12:43.259Z,74.44
2022-08-17T00:14:58.959Z,74.34
2022-08-17T00:17:25.469Z,74.37
2022-08-17T00:19:51.843Z,74.35
2022-08-17T00:22:34.671Z,74.31
2022-08-17T00:25:05.412Z,73.74
2022-08-17T00:27:31.834Z,73.30
2022-08-17T00:29:58.200Z,73.31
2022-08-17T00:33:15.710Z,74.13
2022-08-17T00:35:16.040Z,74.13
2022-08-17T00:37:42.393Z,74.17
2022-08-17T00:40:13.095Z,74.49
2022-08-17T00:42:39.965Z,74.01
2022-08-17T00:45:09.233Z,73.83
2022-08-17T00:47:36.060Z,73.74
2022-08-17T00:50:03.704Z,73.89
2022-08-17T00:52:37.408Z,73.49
2022-08-17T00:55:05.959Z,73.50
2022-08-17T00:57:36.840Z,73.89
2022-08-17T01:00:16.953Z,73.77
2022-08-17T01:02:45.662Z,73.29
2022-08-17T01:05:20.951Z,73.89
2022-08-17T01:07:50.582Z,73.87
2022-08-17T01:10:59.083Z,73.38
2022-08-17T01:13:07.439Z,73.17
2022-08-17T01:15:37.362Z,73.19
2022-08-17T01:18:10.441Z,73.11
2022-08-17T01:20:48.414Z,72.96
2022-08-17T01:23:19.898Z,72.85
2022-08-17T01:25:51.001Z,72.71
2022-08-17T01:28:40.701Z,72.33
2022-08-17T01:31:06.891Z,72.13
2022-08-17T01:33:33.919Z,72.16
2022-08-17T01:36:00.652Z,72.48
2022-08-17T01:38:31.525Z,72.68
2022-08-17T01:41:04.693Z,72.46
2022-08-17T01:43:38.955Z,72.38
2022-08-17T01:46:05.646Z,71.84
2022-08-17T01:48:34.150Z,72.28
2022-08-17T01:51:01.150Z,73.37
2022-08-17T01:53:32.557Z,75.07
2022-08-17T01:56:04.023Z,75.27
2022-08-17T01:58:32.296Z,75.71
2022-08-17T02:01:01.292Z,76.02
2022-08-17T02:03:29.746Z,76.38
2022-08-17T02:05:56.476Z,77.07
2022-08-17T02:08:38.884Z,77.74
2022-08-17T02:11:12.156Z,78.10
2022-08-17T02:13:38.731Z,77.99
2022-08-17T02:16:05.594Z,78.14
2022-08-17T02:18:32.000Z,78.44
2022-08-17T02:20:58.587Z,78.80
2022-08-17T02:23:27.769Z,79.03
2022-08-17T02:25:57.057Z,78.86
2022-08-17T02:28:23.598Z,77.98
2022-08-17T02:31:01.694Z,77.32
2022-08-17T02:33:43.239Z,77.31
2022-08-17T02:36:11.774Z,77.23
2022-08-17T02:38:39.725Z,77.50
2022-08-17T02:41:06.563Z,76.93
2022-08-17T02:43:33.116Z,76.72
2022-08-17T02:45:59.504Z,76.74
2022-08-17T02:48:31.226Z,76.27
2022-08-17T02:50:58.827Z,76.34
2022-08-17T02:53:25.684Z,76.43
2022-08-17T02:55:52.996Z,76.62
2022-08-17T02:58:34.945Z,76.38
2022-08-17T03:01:03.693Z,76.66
2022-08-17T03:03:30.163Z,76.72
2022-08-17T03:05:56.552Z,76.97
2022-08-17T03:08:23.442Z,76.85
2022-08-17T03:10:50.404Z,77.05
2022-08-17T03:13:17.278Z,77.29
2022-08-17T03:15:45.910Z,77.09
2022-08-17T03:18:24.202Z,77.13
2022-08-17T03:20:52.004Z,76.85
2022-08-17T03:23:18.653Z,76.76
2022-08-17T03:25:50.563Z,77.08
2022-08-17T03:28:20.719Z,77.39
2022-08-17T03:30:47.314Z,77.21
2022-08-17T03:33:13.793Z,76.71
2022-08-17T03:35:41.165Z,76.77
2022-08-17T03:38:10.122Z,76.57
2022-08-17T03:40:57.059Z,76.02
2022-08-17T03:43:24.178Z,76.11
2022-08-17T03:46:24.906Z,76.27
2022-08-17T03:49:14.462Z,76.02
2022-08-17T03:51:59.150Z,76.23
2022-08-17T03:54:43.880Z,75.94
2022-08-17T03:57:12.455Z,76.03
2022-08-17T03:59:39.432Z,76.14
2022-08-17T04:02:19.637Z,76.37
2022-08-17T04:04:46.050Z,76.39
2022-08-17T04:07:12.609Z,76.26
2022-08-17T04:09:39.029Z,76.39
2022-08-17T04:12:05.708Z,76.46
2022-08-17T04:14:37.856Z,76.47
2022-08-17T04:17:21.588Z,76.22
2022-08-17T04:19:48.015Z,76.60
2022-08-17T04:22:30.461Z,76.46
2022-08-17T04:25:05.489Z,76.79
2022-08-17T04:27:31.924Z,76.65
2022-08-17T04:29:58.588Z,76.38
2022-08-17T04:33:03.551Z,76.68
2022-08-17T04:35:11.532Z,76.98
2022-08-17T04:37:37.903Z,77.41
2022-08-17T04:40:26.503Z,77.64
2022-08-17T04:43:01.667Z,78.10
2022-08-17T04:45:32.021Z,77.86
2022-08-17T04:47:59.618Z,78.04
2022-08-17T04:50:26.083Z,78.14
2022-08-17T04:52:52.496Z,78.35
2022-08-17T04:55:18.980Z,78.88
2022-08-17T04:57:45.456Z,79.30
2022-08-17T05:00:12.425Z,79.60
2022-08-17T05:02:50.915Z,80.12
2022-08-17T05:05:23.018Z,80.19
2022-08-17T05:07:54.331Z,80.19
2022-08-17T05:10:26.986Z,79.83
2022-08-17T05:13:07.542Z,79.95
2022-08-17T05:15:36.620Z,79.90
2022-08-17T05:18:03.867Z,80.01
2022-08-17T05:20:30.491Z,80.01
2022-08-17T05:23:00.079Z,80.17
2022-08-17T05:25:29.747Z,80.08
2022-08-17T05:27:59.383Z,80.04
2022-08-17T05:30:28.671Z,80.19
2022-08-17T05:32:56.639Z,80.11
2022-08-17T05:35:23.856Z,80.17
2022-08-17T05:37:50.695Z,80.22
2022-08-17T05:40:17.597Z,79.78
2022-08-17T05:42:44.141Z,79.43
2022-08-17T05:45:11.294Z,79.34
2022-08-17T05:47:40.762Z,79.60
2022-08-17T05:50:09.620Z,79.45
2022-08-17T05:52:56.741Z,79.10
2022-08-17T05:55:56.802Z,79.14
2022-08-17T05:58:41.993Z,78.87
2022-08-17T06:01:37.292Z,78.81
2022-08-17T06:04:27.659Z,78.61
2022-08-17T06:07:05.097Z,78.54
2022-08-17T06:09:40.527Z,78.37
2022-08-17T06:12:39.901Z,78.20
2022-08-17T06:15:24.832Z,78.17
2022-08-17T06:17:58.391Z,78.19
2022-08-17T06:20:28.332Z,78.42
2022-08-17T06:23:04.052Z,78.46
2022-08-17T06:25:36.505Z,78.70
2022-08-17T06:28:08.458Z,78.26
2022-08-17T06:31:00.666Z,78.20
2022-08-17T06:33:34.054Z,78.48
2022-08-17T06:36:26.344Z,78.40
2022-08-17T06:39:04.944Z,78.16
2022-08-17T06:41:43.574Z,78.41
2022-08-17T06:44:43.668Z,78.57
2022-08-17T06:47:13.556Z,78.44
2022-08-17T06:49:55.225Z,78.63
2022-08-17T06:52:47.286Z,78.80
2022-08-17T06:55:51.746Z,78.25
2022-08-17T06:58:24.262Z,78.68
2022-08-17T07:00:59.510Z,78.31
2022-08-17T07:03:37.890Z,78.06
2022-08-17T07:06:50.915Z,77.82
2022-08-17T07:09:28.677Z,78.14
2022-08-17T07:12:02.509Z,78.15
2022-08-17T07:14:51.572Z,78.28
2022-08-17T07:17:20.217Z,78.45
2022-08-17T07:19:49.596Z,78.12
2022-08-17T07:22:26.194Z,77.92
2022-08-17T07:24:58.289Z,78.34
2022-08-17T07:27:30.680Z,78.32
2022-08-17T07:30:04.689Z,78.50
2022-08-17T07:32:40.198Z,78.28
2022-08-17T07:35:21.993Z,78.26
2022-08-17T07:37:55.540Z,77.85
2022-08-17T07:40:33.935Z,78.02
2022-08-17T07:43:08.031Z,79.52
2022-08-17T07:46:14.236Z,80.14
2022-08-17T07:48:43.217Z,81.10
2022-08-17T07:51:33.795Z,81.33
2022-08-17T07:54:14.372Z,81.87
2022-08-17T07:56:55.159Z,81.79
2022-08-17T07:59:33.303Z,81.79
2022-08-17T08:02:21.801Z,81.91
2022-08-17T08:05:48.718Z,82.01
2022-08-17T08:08:32.847Z,81.72
2022-08-17T08:11:12.637Z,80.95
2022-08-17T08:13:43.682Z,81.14
2022-08-17T08:16:24.127Z,81.07
2022-08-17T08:18:56.837Z,80.36
2022-08-17T08:21:36.454Z,80.01
2022-08-17T08:24:30.749Z,79.46
2022-08-17T08:27:11.264Z,79.00
2022-08-17T08:29:47.906Z,77.85
2022-08-17T08:32:36.811Z,77.00
2022-08-17T08:35:26.804Z,76.02
2022-08-17T08:38:02.937Z,75.88
2022-08-17T08:40:55.676Z,74.72
2022-08-17T08:43:52.891Z,74.54
2022-08-17T08:46:28.455Z,73.28
2022-08-17T08:49:14.403Z,72.34
2022-08-17T08:51:47.002Z,69.87
2022-08-17T08:54:38.403Z,69.00
2022-08-17T08:57:33.653Z,68.56
2022-08-17T09:00:17.628Z,69.02
2022-08-17T09:02:46.669Z,68.96
2022-08-17T09:05:31.904Z,69.77
2022-08-17T09:08:10.973Z,69.71
2022-08-17T09:10:59.508Z,69.18
2022-08-17T09:13:46.513Z,69.25
2022-08-17T09:16:36.793Z,68.56
2022-08-17T09:19:31.879Z,68.25
2022-08-17T09:22:04.997Z,67.35
2022-08-17T09:24:39.989Z,67.86
2022-08-17T09:27:20.074Z,67.91
2022-08-17T09:29:51.477Z,67.11
2022-08-17T09:35:14.568Z,67.74
2022-08-17T09:38:08.334Z,68.40
2022-08-17T09:41:01.067Z,69.16
2022-08-17T09:43:45.484Z,70.75
2022-08-17T09:46:19.574Z,73.38
2022-08-17T09:48:55.105Z,75.75
2022-08-17T09:51:30.837Z,75.77
2022-08-17T09:54:14.787Z,75.93
2022-08-17T09:57:28.743Z,76.45
2022-08-17T10:00:25.476Z,76.87
2022-08-17T10:03:17.087Z,77.06
2022-08-17T10:06:21.617Z,76.69
2022-08-17T10:09:07.312Z,77.13
2022-08-17T10:12:00.896Z,77.26
2022-08-17T10:14:43.970Z,76.08
2022-08-17T10:17:39.121Z,74.25
2022-08-17T10:20:26.164Z,72.58
2022-08-17T10:23:13.248Z,72.62
2022-08-17T10:26:12.855Z,70.98
2022-08-17T10:29:20.807Z,71.72
2022-08-17T10:31:53.845Z,70.84
2022-08-17T10:34:49.201Z,71.06
2022-08-17T10:37:41.502Z,69.83
2022-08-17T10:40:32.453Z,69.13
2022-08-17T10:43:11.675Z,69.01
2022-08-17T10:46:27.628Z,68.57
2022-08-17T10:49:15.753Z,68.28
2022-08-17T10:51:45.951Z,69.25
2022-08-17T10:54:34.825Z,67.84
2022-08-17T10:57:01.709Z,67.21
2022-08-17T10:59:37.163Z,67.04
2022-08-17T11:02:22.530Z,66.86
2022-08-17T11:04:49.522Z,67.04
2022-08-17T11:07:43.768Z,67.29
2022-08-17T11:10:45.540Z,66.75
2022-08-17T11:13:48.712Z,67.40
2022-08-17T11:16:42.994Z,67.35
2022-08-17T11:19:12.105Z,65.09
2022-08-17T11:22:05.753Z,66.95
2022-08-17T11:24:35.245Z,67.29
2022-08-17T11:27:30.644Z,68.23
2022-08-17T11:30:10.843Z,69.22
2022-08-17T11:32:54.843Z,69.40
2022-08-17T11:35:21.616Z,69.38
2022-08-17T11:37:56.654Z,70.52
2022-08-17T11:41:08.248Z,71.93
2022-08-17T11:43:47.656Z,73.41
2022-08-17T11:46:51.000Z,75.07
2022-08-17T11:49:54.246Z,76.92
2022-08-17T11:52:52.990Z,77.82
2022-08-17T11:55:57.108Z,78.59
2022-08-17T11:58:29.685Z,78.94
2022-08-17T12:01:06.007Z,79.08
2022-08-17T12:03:33.154Z,79.29
2022-08-17T12:06:17.615Z,79.84
2022-08-17T12:08:51.826Z,80.46
2022-08-17T12:11:58.598Z,81.43
2022-08-17T12:14:45.119Z,81.61
2022-08-17T12:17:22.426Z,82.58
2022-08-17T12:20:31.913Z,82.79
2022-08-17T12:23:21.280Z,83.54
2022-08-17T12:25:57.476Z,84.27
2022-08-17T12:28:33.568Z,84.86
2022-08-17T12:31:03.631Z,84.28
2022-08-17T12:33:30.458Z,84.02
2022-08-17T12:36:00.540Z,84.37
2022-08-17T12:38:33.320Z,84.20
2022-08-17T12:41:21.088Z,84.38
2022-08-17T12:44:02.001Z,83.80
2022-08-17T12:46:42.832Z,84.18
2022-08-17T12:49:32.199Z,84.20
2022-08-17T12:52:29.305Z,83.88
2022-08-17T12:55:00.312Z,84.81
2022-08-17T12:57:32.636Z,84.70
2022-08-17T13:00:17.575Z,85.23
2022-08-17T13:02:59.365Z,85.39
2022-08-17T13:05:29.702Z,85.36
2022-08-17T13:07:58.755Z,85.05
2022-08-17T13:10:32.901Z,84.66
2022-08-17T13:13:12.306Z,84.59
2022-08-17T13:15:51.139Z,84.30
2022-08-17T13:18:44.111Z,84.74
2022-08-17T13:21:19.438Z,84.94
2022-08-17T13:24:06.769Z,85.27
2022-08-17T13:26:45.623Z,85.56
2022-08-17T13:29:25.500Z,85.29
2022-08-17T13:32:13.498Z,85.51
2022-08-17T13:34:45.754Z,86.23
2022-08-17T13:37:36.882Z,86.57
2022-08-17T13:40:09.473Z,87.26
2022-08-17T13:42:51.629Z,87.27
2022-08-17T13:45:36.168Z,87.07
2022-08-17T13:48:17.000Z,87.14
2022-08-17T13:50:48.761Z,87.21
2022-08-17T13:53:22.456Z,87.07
2022-08-17T13:55:56.266Z,86.79
2022-08-17T13:58:26.784Z,86.79
2022-08-17T14:00:53.661Z,86.83
2022-08-17T14:03:20.522Z,86.94
2022-08-17T14:05:50.058Z,87.05
2022-08-17T14:08:19.423Z,86.92
2022-08-17T14:10:57.217Z,86.69
2022-08-17T14:13:23.793Z,86.82
2022-08-17T14:15:54.854Z,86.58
2022-08-17T14:18:49.835Z,86.38
2022-08-17T14:21:09.682Z,85.50
2022-08-17T14:23:36.971Z,85.76
2022-08-17T14:26:04.964Z,85.94
2022-08-17T14:28:32.059Z,86.71
2022-08-17T14:30:58.853Z,86.40
2022-08-17T14:33:25.400Z,85.91
2022-08-17T14:35:53.497Z,85.38
2022-08-17T14:38:20.831Z,84.79
2022-08-17T14:40:49.079Z,85.09
2022-08-17T14:43:15.773Z,84.88
2022-08-17T14:45:42.792Z,84.52
2022-08-17T14:48:09.479Z,84.14
2022-08-17T14:50:38.622Z,83.92
2022-08-17T14:53:07.295Z,84.31
2022-08-17T14:55:34.708Z,84.10
2022-08-17T14:58:01.195Z,83.87
2022-08-17T15:00:28.448Z,83.93
2022-08-17T15:02:58.236Z,83.22
2022-08-17T15:05:31.338Z,83.93
2022-08-17T15:07:59.601Z,84.33
2022-08-17T15:10:26.133Z,83.45
2022-08-17T15:12:52.590Z,83.69
2022-08-17T15:15:19.186Z,84.21
2022-08-17T15:17:46.231Z,83.92
2022-08-17T15:20:17.282Z,83.35
2022-08-17T15:22:45.535Z,82.85
2022-08-17T15:25:12.802Z,83.40
2022-08-17T15:27:40.163Z,83.48
2022-08-17T15:30:08.094Z,83.54
2022-08-17T15:32:37.957Z,83.68
2022-08-17T15:35:06.661Z,83.79
2022-08-17T15:37:33.355Z,84.05
2022-08-17T15:40:01.257Z,83.36
2022-08-17T15:42:29.143Z,83.61
2022-08-17T15:44:55.522Z,83.60
2022-08-17T15:47:22.232Z,83.30
2022-08-17T15:49:48.687Z,83.38
2022-08-17T15:52:24.779Z,83.14
2022-08-17T15:54:56.362Z,82.39
2022-08-17T15:57:25.095Z,82.19
2022-08-17T15:59:58.446Z,81.42
2022-08-17T16:03:46.198Z,81.72
2022-08-17T16:05:24.166Z,80.69
2022-08-17T16:07:52.076Z,81.26
2022-08-17T16:10:19.480Z,80.69
2022-08-17T16:12:47.831Z,80.49
2022-08-17T16:15:14.773Z,80.62
2022-08-17T16:17:43.991Z,80.18
2022-08-17T16:20:20.233Z,80.52
2022-08-17T16:22:48.015Z,80.91
2022-08-17T16:25:18.695Z,80.66
2022-08-17T16:27:46.483Z,80.74
2022-08-17T16:30:17.640Z,80.06
2022-08-17T16:32:45.188Z,80.60
2022-08-17T16:35:17.206Z,80.43
2022-08-17T16:37:45.448Z,80.09
2022-08-17T16:40:13.567Z,80.00
2022-08-17T16:42:40.474Z,80.02
2022-08-17T16:45:09.676Z,79.95
2022-08-17T16:47:36.584Z,80.66
2022-08-17T16:50:07.727Z,80.83
2022-08-17T16:52:34.326Z,80.52
2022-08-17T16:55:02.512Z,80.64
2022-08-17T16:57:29.910Z,80.71
2022-08-17T16:59:57.251Z,80.56
2022-08-17T17:02:36.368Z,80.73
2022-08-17T17:05:13.621Z,80.28
2022-08-17T17:08:00.742Z,80.37
2022-08-17T17:10:43.181Z,80.20
2022-08-17T17:13:14.821Z,80.19
2022-08-17T17:15:55.040Z,80.55
2022-08-17T17:18:31.651Z,80.29
2022-08-17T17:20:59.186Z,80.27
2022-08-17T17:23:41.632Z,80.72
2022-08-17T17:26:34.536Z,80.43
2022-08-17T17:29:12.549Z,80.67
2022-08-17T17:31:54.805Z,80.39
2022-08-17T17:34:22.584Z,80.35
2022-08-17T17:37:01.473Z,80.56
2022-08-17T17:39:51.205Z,80.56
2022-08-17T17:42:21.967Z,80.78
2022-08-17T17:45:04.739Z,80.46
2022-08-17T17:47:31.753Z,80.32
2022-08-17T17:50:00.882Z,80.21
2022-08-17T17:52:52.097Z,80.41
2022-08-17T17:55:37.302Z,80.62
2022-08-17T17:58:19.521Z,80.56
2022-08-17T18:01:04.865Z,80.30
2022-08-17T18:04:16.965Z,80.16
2022-08-17T18:07:22.877Z,80.76
2022-08-17T18:10:37.986Z,80.91
2022-08-17T18:13:16.338Z,80.70
2022-08-17T18:15:53.690Z,80.78
2022-08-17T18:18:39.322Z,81.17
2022-08-17T18:21:15.561Z,80.74
2022-08-17T18:23:50.777Z,81.00
2022-08-17T18:26:57.318Z,81.36
2022-08-17T18:29:31.461Z,81.03
2022-08-17T18:32:21.684Z,81.22
2022-08-17T18:34:54.356Z,81.32
2022-08-17T18:37:41.122Z,81.65
2022-08-17T18:40:35.481Z,83.31
2022-08-17T18:43:06.516Z,85.41
2022-08-17T18:45:41.648Z,86.80
2022-08-17T18:48:19.087Z,87.84
2022-08-17T18:50:45.765Z,88.55
2022-08-17T18:53:33.418Z,89.65
2022-08-17T18:56:26.160Z,90.11
2022-08-17T18:59:02.019Z,90.24
2022-08-17T19:01:59.912Z,90.29
2022-08-17T19:04:32.790Z,90.72
2022-08-17T19:07:21.953Z,90.87
2022-08-17T19:09:52.471Z,90.83
2022-08-17T19:12:31.381Z,91.09
2022-08-17T19:14:59.534Z,91.35
2022-08-17T19:17:36.156Z,91.49
2022-08-17T19:20:32.770Z,91.86
2022-08-17T19:23:22.000Z,91.96
2022-08-17T19:25:54.213Z,91.88
2022-08-17T19:28:38.508Z,91.94
2022-08-17T19:31:16.501Z,92.21
2022-08-17T19:33:42.905Z,92.21
2022-08-17T19:36:21.406Z,92.32
2022-08-17T19:39:00.764Z,92.62
2022-08-17T19:41:39.731Z,92.61
2022-08-17T19:44:35.465Z,92.54
2022-08-17T19:47:54.182Z,92.54
2022-08-17T19:50:38.961Z,92.61
2022-08-17T19:53:23.375Z,92.79
2022-08-17T19:56:31.580Z,92.71
2022-08-17T19:59:05.836Z,92.89
2022-08-17T20:01:41.057Z,92.94
2022-08-17T20:04:15.880Z,92.80
2022-08-17T20:06:45.384Z,92.98
2022-08-17T20:09:21.031Z,93.01
2022-08-17T20:12:01.588Z,92.93
2022-08-17T20:14:36.460Z,92.96
2022-08-17T20:17:04.136Z,93.15
2022-08-17T20:19:56.866Z,92.95
2022-08-17T20:22:30.855Z,93.06
2022-08-17T20:25:30.493Z,93.08
2022-08-17T20:28:06.150Z,93.08
2022-08-17T20:30:37.917Z,92.99
2022-08-17T20:33:06.752Z,93.10
2022-08-17T20:35:37.056Z,93.18
2022-08-17T20:38:07.581Z,93.07
2022-08-17T20:40:38.934Z,93.17
2022-08-17T20:43:42.755Z,93.12
2022-08-17T20:46:14.812Z,93.24
2022-08-17T20:48:44.260Z,93.14
2022-08-17T20:51:34.605Z,93.18
2022-08-17T20:54:08.341Z,93.14
2022-08-17T20:56:57.443Z,92.98
2022-08-17T20:59:25.446Z,92.84
2022-08-17T21:02:17.638Z,92.88
2022-08-17T21:04:50.855Z,93.19
2022-08-17T21:07:33.097Z,93.14
2022-08-17T21:10:14.838Z,93.19
2022-08-17T21:12:47.895Z,93.23
2022-08-17T21:15:51.607Z,93.06
2022-08-17T21:18:38.523Z,93.19
2022-08-17T21:21:25.842Z,92.93
2022-08-17T21:24:26.298Z,93.15
2022-08-17T21:27:05.290Z,93.19
2022-08-17T21:29:34.006Z,93.20
2022-08-17T21:32:03.452Z,93.10
2022-08-17T21:34:38.333Z,93.23
2022-08-17T21:37:19.846Z,93.16
2022-08-17T21:39:51.672Z,93.06
2022-08-17T21:42:24.976Z,93.02
2022-08-17T21:44:57.846Z,93.13
2022-08-17T21:47:27.461Z,93.35
2022-08-17T21:50:15.951Z,93.17
2022-08-17T21:52:43.334Z,93.22
2022-08-17T21:55:19.954Z,92.92
2022-08-17T21:57:52.916Z,93.08
2022-08-17T22:00:35.545Z,93.04
2022-08-17T22:03:04.325Z,93.05
2022-08-17T22:05:39.624Z,93.25
2022-08-17T22:08:16.833Z,93.16
2022-08-17T22:10:45.830Z,93.28
2022-08-17T22:13:16.844Z,93.01
2022-08-17T22:15:47.126Z,93.20
2022-08-17T22:18:22.147Z,93.44
2022-08-17T22:20:51.287Z,93.33
2022-08-17T22:23:59.252Z,93.24
2022-08-17T22:26:47.512Z,93.30
2022-08-17T22:29:56.974Z,93.03
2022-08-17T22:32:31.666Z,92.96
2022-08-17T22:35:32.543Z,92.99
2022-08-17T22:38:19.157Z,92.92
2022-08-17T22:41:07.120Z,92.80
2022-08-17T22:43:37.929Z,92.79
2022-08-17T22:46:10.433Z,92.77
2022-08-17T22:48:37.781Z,92.85
2022-08-17T22:51:13.965Z,92.87
2022-08-17T22:54:07.995Z,92.84
2022-08-17T22:56:53.341Z,92.83
2022-08-17T22:59:36.887Z,92.68
2022-08-17T23:02:24.159Z,92.75
2022-08-17T23:05:16.531Z,92.83
2022-08-17T23:07:45.426Z,92.73
2022-08-17T23:10:13.174Z,92.72
2022-08-17T23:12:39.808Z,92.75
2022-08-17T23:15:14.217Z,92.63
2022-08-17T23:17:41.890Z,92.79
2022-08-17T23:20:12.046Z,92.60
2022-08-17T23:22:51.710Z,92.64
2022-08-17T23:25:25.773Z,92.79
2022-08-17T23:27:52.424Z,92.83
2022-08-17T23:30:19.157Z,92.76
2022-08-17T23:32:53.735Z,92.87
2022-08-17T23:35:39.697Z,93.01
2022-08-17T23:38:07.534Z,92.89
2022-08-17T23:40:34.460Z,92.93
2022-08-17T23:43:00.859Z,92.97
2022-08-17T23:45:32.327Z,93.02
2022-08-17T23:47:58.676Z,92.87
2022-08-17T23:50:25.036Z,92.98
2022-08-17T23:52:56.412Z,93.12
2022-08-17T23:55:22.816Z,93.23
2022-08-17T23:57:49.457Z,93.22
